GCLP/LPA METAR and TAF weather

Enter ICAO airport designator
Station Type Date Time Source
GCLP METAR 2020/05/30 04:30 UTC NOAA

GCLP 300430Z 36007KT 9999 BKN025 21/15 Q1013 NOSIG


Station Type Date Time Source
GCLP Decoded METAR 2020/05/30 04:30 UTC NOAA

Gran Canaria - Canary Islands, Spain (GCLP) 27-56N 015-23W 47M
May 30, 2020 - 12:30 AM EDT / 2020.05.30 0430 UTC
Wind: from the N (360 degrees) at 8 MPH (7 KT):0
Visibility: greater than 7 mile(s):0
Sky conditions: mostly cloudy
Temperature: 69 F (21 C)
Dew Point: 59 F (15 C)
Relative Humidity: 68%
Pressure (altimeter): 29.91 in. Hg (1013 hPa)
ob: GCLP 300430Z 36007KT 9999 BKN025 21/15 Q1013 NOSIG
cycle: 4

Station Type Date Time Source
GCLP TAF 2020/05/30 03:36 UTC NOAA

TAF GCLP 300200Z 3003/3103 33007KT 9999 SCT025 TX23/3014Z TN18/3006Z
BECMG 3009/3012 03017KT

Example: see airport list